Time;durP1;ratioP1;P1;durP2;ratioP2;P2;SDS_P1;SDS_P2;PMS_P1;PMS_P2;Temp;Humidity;BMP_temperature;BMP_pressure;BME280_temperature;BME280_humidity;BME280_pressure;Samples;Min_cycle;Max_cycle;Signal;HPM_P1;HPM_P2
2022/12/30 00:00:36;;;;;;;23.15;3.40;;;7.00;99.90;;;;;;4995399;28;20065;-85
2022/12/30 00:03:02;;;;;;;29.88;3.85;;;6.00;99.90;;;;;;5007177;28;20575;-83
2022/12/30 00:05:28;;;;;;;15.10;2.97;;;6.90;99.90;;;;;;4994064;28;20041;-85
2022/12/30 00:07:56;;;;;;;16.67;3.33;;;7.10;99.90;;;;;;4990355;28;20062;-86
2022/12/30 00:10:22;;;;;;;14.30;3.67;;;7.00;99.90;;;;;;4994034;28;20049;-83
2022/12/30 00:35:21;;;;;;;16.17;3.25;;;6.90;99.90;;;;;;5001826;28;20515;-84
2022/12/30 00:37:47;;;;;;;17.27;3.65;;;6.90;99.90;;;;;;5003094;28;20054;-88
2022/12/30 00:40:13;;;;;;;18.25;2.70;;;6.90;99.90;;;;;;4978697;28;20053;-87
2022/12/30 00:45:25;;;;;;;15.63;3.30;;;6.90;99.90;;;;;;5014416;28;20096;-84
2022/12/30 00:47:52;;;;;;;17.83;2.88;;;6.80;99.90;;;;;;4995312;28;20073;-83
2022/12/30 00:58:31;;;;;;;16.02;2.53;;;6.80;99.90;;;;;;4978052;28;20049;-84
2022/12/30 01:00:56;;;;;;;14.35;3.03;;;6.80;99.90;;;;;;4980230;28;20042;-84
2022/12/30 01:03:25;;;;;;;17.13;3.38;;;6.70;99.90;;;;;;5006969;28;20054;-84
2022/12/30 01:05:51;;;;;;;16.73;2.97;;;5.20;99.90;;;;;;4992901;28;20233;-85
2022/12/30 01:08:19;;;;;;;17.80;3.42;;;6.10;99.90;;;;;;4990359;28;20148;-84
2022/12/30 01:10:44;;;;;;;17.20;3.05;;;6.80;99.90;;;;;;4994560;28;20049;-84
2022/12/30 01:13:13;;;;;;;22.75;3.35;;;6.70;99.90;;;;;;4973117;28;20093;-84
2022/12/30 01:15:39;;;;;;;20.30;3.50;;;6.70;99.90;;;;;;5009929;28;20081;-84
2022/12/30 01:18:04;;;;;;;13.60;2.55;;;6.70;99.90;;;;;;4990895;28;20076;-83
2022/12/30 01:20:33;;;;;;;24.73;3.80;;;6.80;99.90;;;;;;4987763;28;20039;-83
2022/12/30 01:23:01;;;;;;;17.67;3.15;;;6.60;99.90;;;;;;4995473;28;20046;-84
2022/12/30 01:25:27;;;;;;;18.75;3.72;;;6.60;99.90;;;;;;5009479;28;20084;-85
2022/12/30 01:27:55;;;;;;;22.50;3.55;;;6.60;99.90;;;;;;5009509;28;20124;-85
2022/12/30 01:30:21;;;;;;;16.55;3.00;;;6.80;99.90;;;;;;5014995;28;20037;-84
2022/12/30 01:32:47;;;;;;;22.10;3.53;;;6.60;99.90;;;;;;4994993;28;20038;-84
2022/12/30 01:35:13;;;;;;;20.98;4.20;;;6.50;99.90;;;;;;4996954;28;20500;-84
2022/12/30 01:37:39;;;;;;;21.88;3.95;;;;;;;;;;4999331;28;20089;-83
2022/12/30 01:40:08;;;;;;;19.08;3.45;;;6.50;99.90;;;;;;5014304;28;20044;-84
2022/12/30 01:42:41;;;;;;;18.23;3.75;;;6.50;99.90;;;;;;4996445;28;20053;-84
2022/12/30 01:45:21;;;;;;;18.60;3.85;;;6.40;99.90;;;;;;5010906;28;20100;-84
2022/12/30 01:48:16;;;;;;;20.00;3.60;;;6.40;99.90;;;;;;4997774;28;20050;-85
2022/12/30 01:51:00;;;;;;;13.73;3.30;;;6.40;99.90;;;;;;5011286;28;20131;-84
2022/12/30 01:53:31;;;;;;;21.33;3.17;;;6.60;99.90;;;;;;5014951;28;20520;-84
2022/12/30 01:56:12;;;;;;;19.50;3.65;;;6.40;99.90;;;;;;4993070;28;20053;-86
2022/12/30 01:58:50;;;;;;;17.75;3.47;;;6.30;99.90;;;;;;4996308;28;20039;-84
2022/12/30 02:01:17;;;;;;;19.48;3.00;;;8.00;99.90;;;;;;4997468;28;20045;-85
2022/12/30 02:04:04;;;;;;;18.75;3.42;;;5.70;99.90;;;;;;5010210;28;20050;-84
2022/12/30 02:07:00;;;;;;;15.88;3.22;;;6.20;99.90;;;;;;5014317;28;20076;-83
2022/12/30 02:09:34;;;;;;;22.33;3.63;;;6.20;99.90;;;;;;4989766;28;20073;-85
2022/12/30 02:12:01;;;;;;;14.68;2.97;;;6.20;99.90;;;;;;5008824;28;20045;-86
2022/12/30 02:14:35;;;;;;;16.25;3.08;;;5.40;99.90;;;;;;4991475;28;20108;-84
2022/12/30 02:17:15;;;;;;;20.65;3.75;;;6.10;99.90;;;;;;5011957;28;20046;-88
2022/12/30 02:20:12;;;;;;;17.90;3.50;;;6.10;99.90;;;;;;4997071;28;20061;-84
2022/12/30 02:22:53;;;;;;;17.80;3.47;;;6.20;99.90;;;;;;4996194;28;20140;-85
2022/12/30 02:25:43;;;;;;;19.75;3.20;;;6.10;99.90;;;;;;5007327;28;20116;-85
2022/12/30 02:28:24;;;;;;;20.05;3.45;;;6.10;99.90;;;;;;5013906;28;20049;-83
2022/12/30 02:31:35;;;;;;;15.00;3.03;;;6.10;99.90;;;;;;4990567;28;20050;-84
2022/12/30 02:34:01;;;;;;;15.52;3.33;;;6.10;99.90;;;;;;5004904;28;20129;-85
2022/12/30 02:36:49;;;;;;;16.92;3.25;;;6.10;99.90;;;;;;5000591;28;20172;-85
2022/12/30 02:39:44;;;;;;;15.93;2.80;;;6.10;99.90;;;;;;4997253;28;20108;-85
2022/12/30 02:45:38;;;;;;;15.20;3.03;;;6.10;99.90;;;;;;5009149;28;20085;-85
2022/12/30 02:48:14;;;;;;;12.95;2.50;;;5.90;99.90;;;;;;4990025;28;20060;-86
2022/12/30 02:53:30;;;;;;;11.20;2.53;;;6.00;99.90;;;;;;5028801;28;20050;-83
2022/12/30 02:55:59;;;;;;;16.08;3.13;;;5.80;99.90;;;;;;4999700;28;20119;-85
2022/12/30 02:58:33;;;;;;;15.68;2.72;;;5.80;99.90;;;;;;5008743;28;20487;-85
2022/12/30 03:04:44;;;;;;;16.77;2.35;;;4.50;99.90;;;;;;5009284;28;20503;-86
2022/12/30 03:07:20;;;;;;;13.15;3.60;;;5.80;99.90;;;;;;4993931;28;20042;-86
2022/12/30 03:13:11;;;;;;;15.73;2.60;;;5.70;99.90;;;;;;5005712;28;20065;-85
2022/12/30 03:15:48;;;;;;;12.45;2.30;;;5.80;99.90;;;;;;5009867;28;20132;-84
2022/12/30 03:18:18;;;;;;;12.50;2.35;;;5.70;99.90;;;;;;4988332;28;20053;-84
2022/12/30 03:20:45;;;;;;;13.05;2.50;;;5.50;99.90;;;;;;4992664;28;20624;-84
2022/12/30 03:28:50;;;;;;;16.23;2.95;;;4.50;99.90;;;;;;5010252;28;20061;-86
2022/12/30 03:31:17;;;;;;;11.40;2.28;;;5.30;99.90;;;;;;4994811;28;20050;-84
2022/12/30 03:33:44;;;;;;;15.43;3.15;;;5.50;99.90;;;;;;4993423;28;20125;-85
2022/12/30 03:36:27;;;;;;;13.88;2.25;;;5.60;99.90;;;;;;4994234;28;20061;-86
2022/12/30 03:39:15;;;;;;;18.23;2.90;;;5.50;99.90;;;;;;4990950;28;20041;-85
2022/12/30 03:41:45;;;;;;;16.45;2.30;;;5.40;99.90;;;;;;5005071;28;20046;-85
2022/12/30 03:44:13;;;;;;;14.05;3.45;;;5.40;99.90;;;;;;5008545;28;20095;-86
2022/12/30 03:46:44;;;;;;;18.10;3.35;;;5.20;99.90;;;;;;4992680;28;20034;-84
2022/12/30 03:49:10;;;;;;;14.07;2.55;;;3.90;99.90;;;;;;4990393;28;20077;-84
2022/12/30 03:51:36;;;;;;;23.60;3.42;;;5.20;99.90;;;;;;4990664;28;20053;-84
2022/12/30 03:54:02;;;;;;;21.20;3.63;;;5.40;99.90;;;;;;5010973;28;20040;-84
2022/12/30 03:56:28;;;;;;;19.80;3.40;;;5.10;99.90;;;;;;4991555;28;20053;-84
2022/12/30 03:58:56;;;;;;;18.63;3.67;;;5.40;99.90;;;;;;4993021;28;20050;-84
2022/12/30 04:01:22;;;;;;;19.63;3.63;;;5.30;99.90;;;;;;5007711;28;20137;-85
2022/12/30 04:03:47;;;;;;;18.05;3.15;;;5.30;99.90;;;;;;4993052;28;20054;-86
2022/12/30 04:06:13;;;;;;;16.95;3.75;;;5.30;99.90;;;;;;4986625;28;20049;-83
2022/12/30 04:08:39;;;;;;;14.52;3.25;;;5.40;99.90;;;;;;4991698;28;20399;-84
2022/12/30 04:11:05;;;;;;;19.17;3.88;;;5.30;99.90;;;;;;4978420;28;20067;-84
2022/12/30 04:13:31;;;;;;;16.80;3.65;;;5.30;99.90;;;;;;4990743;28;20061;-84
2022/12/30 04:15:56;;;;;;;12.95;3.38;;;5.20;99.90;;;;;;5009588;28;20081;-83
2022/12/30 04:18:23;;;;;;;17.58;3.88;;;5.40;99.90;;;;;;4995596;28;20080;-83
2022/12/30 04:20:51;;;;;;;13.82;3.65;;;5.30;99.90;;;;;;4978452;28;20055;-83
2022/12/30 04:23:17;;;;;;;24.33;3.85;;;5.40;99.90;;;;;;4991768;28;20097;-86
2022/12/30 04:25:43;;;;;;;18.65;3.40;;;5.40;99.90;;;;;;5007739;28;20037;-84
2022/12/30 04:28:09;;;;;;;26.08;4.55;;;5.40;99.90;;;;;;4997427;28;20128;-84
2022/12/30 04:30:35;;;;;;;18.88;3.80;;;5.40;99.90;;;;;;5008168;28;20038;-83
2022/12/30 04:33:01;;;;;;;14.90;3.50;;;5.30;99.90;;;;;;4973692;28;20049;-86
2022/12/30 04:35:27;;;;;;;16.17;3.40;;;3.90;99.90;;;;;;4993603;28;20049;-85
2022/12/30 04:37:53;;;;;;;12.57;4.05;;;5.40;99.90;;;;;;4992343;28;20101;-83
2022/12/30 04:40:22;;;;;;;13.02;3.95;;;5.30;99.90;;;;;;4999788;28;20049;-84
2022/12/30 04:42:47;;;;;;;16.73;4.40;;;5.20;99.90;;;;;;4994278;28;20057;-84
2022/12/30 04:45:13;;;;;;;15.60;4.40;;;4.20;99.90;;;;;;4989558;28;20073;-84
2022/12/30 04:47:39;;;;;;;18.65;4.82;;;5.00;99.90;;;;;;5006605;28;20052;-84
2022/12/30 04:50:07;;;;;;;18.08;5.00;;;5.30;99.90;;;;;;4992228;28;20505;-84
2022/12/30 04:52:33;;;;;;;19.95;5.97;;;5.30;99.90;;;;;;4975465;28;20050;-84
2022/12/30 04:54:59;;;;;;;19.27;6.22;;;5.60;99.90;;;;;;4995711;28;20119;-83
2022/12/30 04:57:25;;;;;;;15.18;6.30;;;5.30;99.90;;;;;;4994364;28;20049;-84
2022/12/30 04:59:51;;;;;;;22.10;6.53;;;5.40;99.90;;;;;;4991892;28;20070;-84
2022/12/30 05:02:17;;;;;;;19.23;6.80;;;5.30;99.90;;;;;;4991110;28;20099;-84
2022/12/30 05:04:43;;;;;;;14.13;7.18;;;5.40;99.90;;;;;;4979661;28;20129;-84
2022/12/30 05:07:08;;;;;;;16.88;7.53;;;5.30;99.90;;;;;;4996943;28;20049;-85
2022/12/30 05:09:34;;;;;;;18.52;8.52;;;5.40;99.90;;;;;;4993871;28;20053;-84
2022/12/30 05:12:00;;;;;;;18.27;8.93;;;5.40;99.90;;;;;;5010553;28;20466;-84
2022/12/30 05:14:29;;;;;;;21.02;8.50;;;5.60;99.90;;;;;;4999873;28;20103;-86
2022/12/30 05:16:57;;;;;;;18.45;9.88;;;5.40;99.90;;;;;;5011748;28;20060;-85
2022/12/30 05:19:23;;;;;;;22.67;9.15;;;5.40;99.90;;;;;;4995332;28;20509;-84
2022/12/30 05:21:52;;;;;;;20.05;9.18;;;6.00;99.90;;;;;;4992405;28;20076;-84
2022/12/30 05:27:02;;;;;;;21.15;9.88;;;5.50;99.90;;;;;;5010914;28;20053;-84
2022/12/30 05:29:28;;;;;;;19.00;9.32;;;5.40;99.90;;;;;;4969627;28;20069;-86
2022/12/30 05:31:53;;;;;;;20.25;10.35;;;5.50;99.90;;;;;;5005723;28;20068;-85
2022/12/30 05:34:22;;;;;;;20.70;9.20;;;5.50;99.90;;;;;;4996187;28;20058;-85
2022/12/30 05:36:50;;;;;;;20.10;9.27;;;5.50;99.90;;;;;;4994261;28;20037;-84
2022/12/30 05:39:19;;;;;;;17.55;8.32;;;5.40;99.90;;;;;;4981048;28;20053;-84
2022/12/30 05:41:44;;;;;;;16.58;8.15;;;5.50;99.90;;;;;;4992163;28;20053;-85
2022/12/30 05:44:13;;;;;;;21.20;8.80;;;5.60;99.90;;;;;;4980991;28;20049;-84
2022/12/30 05:46:42;;;;;;;16.48;8.43;;;5.50;99.90;;;;;;5011144;28;20046;-84
2022/12/30 05:49:08;;;;;;;19.42;8.30;;;6.10;99.90;;;;;;4997473;28;20488;-84
2022/12/30 05:51:36;;;;;;;18.55;8.50;;;5.50;99.90;;;;;;4997280;28;20348;-84
2022/12/30 05:54:02;;;;;;;19.48;8.40;;;5.60;99.90;;;;;;4981207;28;20134;-84
2022/12/30 05:56:28;;;;;;;17.52;8.05;;;5.40;99.90;;;;;;4992850;28;20128;-83
2022/12/30 05:58:53;;;;;;;22.45;7.97;;;5.50;99.90;;;;;;4995327;28;20076;-83
2022/12/30 06:01:19;;;;;;;14.23;7.45;;;4.30;99.90;;;;;;4996379;28;20037;-85
2022/12/30 06:03:45;;;;;;;18.92;6.55;;;5.60;99.90;;;;;;4998791;28;20511;-84
2022/12/30 06:06:13;;;;;;;15.13;6.60;;;5.50;99.90;;;;;;4980339;28;20046;-86
2022/12/30 06:08:41;;;;;;;20.33;6.05;;;6.00;99.90;;;;;;4998775;28;20041;-84
2022/12/30 06:11:07;;;;;;;17.60;5.90;;;5.50;99.90;;;;;;4975036;28;20041;-83
2022/12/30 06:13:33;;;;;;;18.73;6.32;;;5.50;99.90;;;;;;4993743;28;20078;-86
2022/12/30 06:16:02;;;;;;;14.55;5.75;;;5.50;99.90;;;;;;4993494;28;20250;-84
2022/12/30 06:18:28;;;;;;;20.38;5.75;;;5.50;99.90;;;;;;4993988;28;20437;-84
2022/12/30 06:20:55;;;;;;;17.38;4.95;;;5.50;99.90;;;;;;5011889;28;20062;-84
2022/12/30 06:23:24;;;;;;;14.63;4.53;;;5.50;99.90;;;;;;4993821;28;20108;-84
2022/12/30 06:25:54;;;;;;;12.52;4.00;;;5.50;99.90;;;;;;4997198;28;20523;-83
2022/12/30 06:28:21;;;;;;;9.68;3.38;;;5.70;99.90;;;;;;5011593;28;20491;-84
2022/12/30 06:30:48;;;;;;;14.55;3.90;;;5.50;99.90;;;;;;4991500;28;20144;-83
2022/12/30 06:33:14;;;;;;;9.32;3.03;;;;;;;;;;4995668;28;20128;-84
2022/12/30 06:35:40;;;;;;;11.68;3.28;;;5.40;99.90;;;;;;4992989;28;20645;-84
2022/12/30 06:38:06;;;;;;;14.32;3.78;;;5.40;99.90;;;;;;4992983;28;20041;-84
2022/12/30 06:40:34;;;;;;;14.18;3.17;;;5.40;99.90;;;;;;5012149;28;20211;-83
2022/12/30 06:43:00;;;;;;;9.40;3.30;;;5.50;99.90;;;;;;4993192;28;20767;-84
2022/12/30 06:45:31;;;;;;;14.27;3.15;;;5.30;99.90;;;;;;5008030;28;20479;-83
2022/12/30 06:47:59;;;;;;;10.05;3.00;;;5.20;99.90;;;;;;5011913;28;20165;-84
2022/12/30 06:50:24;;;;;;;12.40;3.20;;;5.20;99.90;;;;;;4995847;28;20054;-84
2022/12/30 06:52:50;;;;;;;11.90;2.90;;;5.20;99.90;;;;;;5006661;28;20034;-84
2022/12/30 06:55:16;;;;;;;16.88;3.50;;;5.10;99.90;;;;;;4995445;28;20426;-84
2022/12/30 06:57:44;;;;;;;15.07;3.88;;;5.10;99.90;;;;;;4989856;28;20177;-84
2022/12/30 07:00:11;;;;;;;12.52;3.38;;;5.10;99.90;;;;;;4991895;28;20089;-86
2022/12/30 07:02:36;;;;;;;12.68;3.55;;;5.00;99.90;;;;;;4989576;28;20634;-83
2022/12/30 07:05:03;;;;;;;15.40;4.28;;;5.50;99.90;;;;;;4988981;28;20041;-84
2022/12/30 07:07:28;;;;;;;18.33;4.57;;;4.90;99.90;;;;;;4997068;28;20045;-83
2022/12/30 07:09:54;;;;;;;17.92;4.35;;;4.90;99.90;;;;;;4996052;28;20172;-84
2022/12/30 07:12:20;;;;;;;10.93;3.97;;;4.90;99.90;;;;;;4999135;28;20049;-84
2022/12/30 07:14:48;;;;;;;9.23;3.38;;;5.90;99.90;;;;;;4994321;28;20099;-83
2022/12/30 07:17:14;;;;;;;19.70;4.20;;;5.60;99.90;;;;;;5012385;28;20426;-84
2022/12/30 07:19:40;;;;;;;13.30;3.85;;;4.80;99.90;;;;;;4975710;28;20062;-83
2022/12/30 07:22:06;;;;;;;15.48;3.30;;;4.70;99.90;;;;;;4986141;28;20046;-85
2022/12/30 07:24:31;;;;;;;15.98;3.97;;;5.00;99.90;;;;;;5007197;28;20539;-84
2022/12/30 07:26:59;;;;;;;12.85;4.35;;;4.90;99.90;;;;;;4991031;28;20041;-83
2022/12/30 07:29:25;;;;;;;11.27;3.42;;;4.70;99.90;;;;;;4990147;28;20070;-84
2022/12/30 07:31:54;;;;;;;17.05;3.97;;;4.70;99.90;;;;;;5006420;28;20504;-88
2022/12/30 07:34:34;;;;;;;7.32;3.50;;;4.60;99.90;;;;;;4993478;28;20049;-86
2022/12/30 07:37:01;;;;;;;13.10;3.35;;;4.60;99.90;;;;;;4995956;28;20034;-86
2022/12/30 07:39:32;;;;;;;11.98;3.25;;;4.00;99.90;;;;;;4978888;28;20041;-86
2022/12/30 07:42:03;;;;;;;14.27;3.38;;;3.40;99.90;;;;;;4996870;28;20073;-85
2022/12/30 07:44:41;;;;;;;10.23;3.47;;;4.60;99.90;;;;;;4976373;28;20060;-86
2022/12/30 07:47:10;;;;;;;11.13;3.28;;;4.50;99.90;;;;;;5009856;28;20037;-85
2022/12/30 07:49:41;;;;;;;14.23;3.67;;;4.50;99.90;;;;;;5014977;28;20045;-87
2022/12/30 07:52:09;;;;;;;13.90;3.53;;;3.10;99.90;;;;;;4982161;28;20054;-88
2022/12/30 07:54:37;;;;;;;13.90;3.30;;;4.50;99.90;;;;;;5007289;28;20050;-86
2022/12/30 07:57:03;;;;;;;17.55;3.88;;;4.60;99.90;;;;;;5012485;28;20044;-85
2022/12/30 07:59:31;;;;;;;12.88;3.78;;;4.50;99.90;;;;;;4996419;28;20041;-85
2022/12/30 08:02:03;;;;;;;10.95;3.80;;;4.50;99.90;;;;;;4995844;28;20057;-86
2022/12/30 08:04:28;;;;;;;9.98;3.05;;;4.70;99.90;;;;;;4990694;28;20094;-82
2022/12/30 08:06:54;;;;;;;13.88;3.55;;;4.50;99.90;;;;;;5008834;28;20049;-82
2022/12/30 08:09:20;;;;;;;11.80;2.97;;;3.80;99.90;;;;;;4994942;28;20041;-86
2022/12/30 08:11:49;;;;;;;9.88;3.15;;;4.70;99.90;;;;;;4991944;28;20522;-85
2022/12/30 08:14:15;;;;;;;13.82;3.45;;;4.80;99.90;;;;;;4956650;28;20060;-84
2022/12/30 08:16:45;;;;;;;9.60;3.15;;;4.50;99.90;;;;;;4987620;28;20042;-85
2022/12/30 08:19:14;;;;;;;14.50;3.30;;;4.60;99.90;;;;;;4996152;28;20076;-85
2022/12/30 08:21:49;;;;;;;10.57;3.53;;;4.50;99.90;;;;;;5015881;28;20077;-84
2022/12/30 08:24:15;;;;;;;9.48;2.83;;;4.70;99.90;;;;;;4991447;28;20042;-85
2022/12/30 08:26:43;;;;;;;8.30;3.38;;;4.70;99.90;;;;;;4996159;28;20046;-85
2022/12/30 08:29:09;;;;;;;13.40;4.10;;;4.70;99.90;;;;;;4997753;28;20099;-84
2022/12/30 08:31:35;;;;;;;12.90;3.05;;;4.80;99.90;;;;;;4991586;28;20609;-84
2022/12/30 08:34:01;;;;;;;10.30;3.55;;;4.50;99.90;;;;;;4987641;28;20045;-82
2022/12/30 08:36:28;;;;;;;11.68;3.42;;;4.60;99.90;;;;;;4994155;28;20050;-83
2022/12/30 08:39:00;;;;;;;9.77;2.53;;;4.60;99.90;;;;;;5006699;28;20058;-84
2022/12/30 08:41:32;;;;;;;9.50;2.58;;;4.60;99.90;;;;;;4993869;28;20045;-83
2022/12/30 08:43:59;;;;;;;9.43;2.55;;;4.70;99.90;;;;;;4992267;28;20410;-82
2022/12/30 08:46:26;;;;;;;11.88;2.60;;;4.60;99.90;;;;;;4994659;28;20052;-83
2022/12/30 08:48:53;;;;;;;9.02;3.15;;;;;;;;;;4992267;28;20128;-84
2022/12/30 08:51:40;;;;;;;11.88;2.28;;;4.60;99.90;;;;;;4995133;28;20049;-83
2022/12/30 08:54:08;;;;;;;6.97;2.60;;;6.20;99.90;;;;;;4993927;28;20045;-84
2022/12/30 08:56:36;;;;;;;16.52;3.00;;;4.60;99.90;;;;;;4993944;28;20053;-83
2022/12/30 08:59:05;;;;;;;11.55;2.53;;;4.50;99.90;;;;;;5008681;28;20065;-82
2022/12/30 09:01:36;;;;;;;11.13;2.90;;;4.70;99.90;;;;;;4978516;28;20057;-81
2022/12/30 09:04:04;;;;;;;11.30;3.05;;;4.60;99.90;;;;;;5009721;28;20042;-83
2022/12/30 09:06:35;;;;;;;9.60;2.55;;;4.80;99.90;;;;;;4996336;28;20511;-84
2022/12/30 09:09:03;;;;;;;13.13;3.25;;;4.70;99.90;;;;;;5009820;28;20057;-86
2022/12/30 09:11:50;;;;;;;12.20;2.80;;;4.70;99.90;;;;;;5009857;28;20050;-85
2022/12/30 09:14:16;;;;;;;;;;;4.80;99.90;;;;;;5008339;28;20057;-86
2022/12/30 09:16:45;;;;;;;;;;;4.70;99.90;;;;;;5007535;28;19964;-85
2022/12/30 09:19:11;;;;;;;13.48;3.95;;;5.00;99.90;;;;;;5013571;28;19920;-88
2022/12/30 09:21:55;;;;;;;17.50;3.58;;;4.80;99.90;;;;;;5007935;28;20402;-87
2022/12/30 09:24:21;;;;;;;9.95;3.42;;;5.90;99.90;;;;;;4979303;28;20531;-85
2022/12/30 09:27:05;;;;;;;;;;;;;;;;;;;;;
2022/12/30 09:29:38;;;;;;;12.98;3.50;;;4.80;99.90;;;;;;4998063;28;20045;-86
2022/12/30 09:32:09;;;;;;;9.07;3.35;;;5.70;99.90;;;;;;4999855;28;20049;-86
2022/12/30 09:34:38;;;;;;;12.93;3.35;;;5.10;99.90;;;;;;4984993;28;20046;-85
2022/12/30 09:37:04;;;;;;;9.45;4.07;;;4.90;99.90;;;;;;4994756;28;20045;-88
2022/12/30 09:39:32;;;;;;;15.57;3.80;;;5.10;99.90;;;;;;4989071;28;20042;-84
2022/12/30 09:45:25;;;;;;;9.15;3.70;;;5.00;99.90;;;;;;5010869;28;20137;-88
2022/12/30 09:47:56;;;;;;;11.52;3.40;;;6.60;99.90;;;;;;5014986;28;20034;-84
2022/12/30 09:50:22;;;;;;;11.50;3.00;;;5.20;99.90;;;;;;5012179;28;20506;-86
2022/12/30 09:53:03;;;;;;;10.75;3.15;;;5.20;99.90;;;;;;5008024;28;20054;-83
2022/12/30 09:55:46;;;;;;;11.00;2.72;;;5.30;99.90;;;;;;5007689;28;20045;-84
2022/12/30 09:58:24;;;;;;;9.77;2.75;;;5.20;99.90;;;;;;4992175;28;20048;-83
2022/12/30 10:00:52;;;;;;;11.27;3.33;;;5.30;99.90;;;;;;5009619;28;20399;-83
2022/12/30 10:03:27;;;;;;;10.85;2.97;;;5.30;99.90;;;;;;4994655;28;20572;-84
2022/12/30 10:06:12;;;;;;;15.70;3.28;;;5.50;99.90;;;;;;4995288;28;20124;-85
2022/12/30 10:09:05;;;;;;;8.77;2.83;;;5.40;99.90;;;;;;5014647;28;20042;-85
2022/12/30 10:11:58;;;;;;;8.75;3.10;;;5.40;99.90;;;;;;5027149;28;20121;-87
2022/12/30 10:14:58;;;;;;;9.45;2.78;;;5.60;99.90;;;;;;4995359;28;20669;-83
2022/12/30 10:17:31;;;;;;;9.50;3.35;;;5.60;99.90;;;;;;5007608;28;20068;-82
2022/12/30 10:20:12;;;;;;;11.20;2.80;;;5.80;99.90;;;;;;5008360;28;20546;-82
2022/12/30 10:23:09;;;;;;;9.70;3.08;;;5.70;99.90;;;;;;5010922;28;20045;-84
2022/12/30 10:25:44;;;;;;;9.30;2.92;;;5.70;99.90;;;;;;4990360;28;20049;-83
2022/12/30 10:28:13;;;;;;;9.85;2.58;;;5.80;99.90;;;;;;5009004;28;20494;-84
2022/12/30 10:30:45;;;;;;;7.93;2.33;;;5.70;99.90;;;;;;5010080;28;20041;-81
2022/12/30 10:33:23;;;;;;;9.07;2.30;;;5.80;99.90;;;;;;4989300;28;20091;-83
2022/12/30 10:36:06;;;;;;;12.65;3.22;;;4.50;99.90;;;;;;4989205;28;20080;-83
2022/12/30 10:38:32;;;;;;;7.35;2.03;;;5.80;99.90;;;;;;4995189;28;20124;-82
2022/12/30 10:41:06;;;;;;;7.68;2.60;;;6.00;99.90;;;;;;4981914;28;20080;-84
2022/12/30 10:43:52;;;;;;;11.55;2.60;;;6.00;99.90;;;;;;4992315;28;20131;-83
2022/12/30 10:46:27;;;;;;;10.27;2.93;;;6.00;99.90;;;;;;4991636;28;20052;-83
2022/12/30 10:49:18;;;;;;;7.30;2.70;;;4.70;99.90;;;;;;5000723;28;20045;-82
2022/12/30 10:51:45;;;;;;;10.30;2.55;;;5.90;99.90;;;;;;5013626;28;20048;-83
2022/12/30 10:54:10;;;;;;;7.53;2.45;;;5.90;99.90;;;;;;5000371;28;20055;-82
2022/12/30 10:56:39;;;;;;;5.68;2.33;;;5.90;99.90;;;;;;4998823;28;20045;-82
2022/12/30 10:59:27;;;;;;;10.73;2.70;;;6.00;99.90;;;;;;4999000;28;20103;-82
2022/12/30 11:01:59;;;;;;;7.57;2.70;;;5.90;99.90;;;;;;4997711;28;20052;-82
2022/12/30 11:04:33;;;;;;;5.70;2.13;;;5.50;99.90;;;;;;5011080;28;20077;-85
2022/12/30 11:07:02;;;;;;;8.52;2.30;;;6.00;99.90;;;;;;5006420;28;20081;-83
2022/12/30 11:09:44;;;;;;;5.68;2.03;;;6.00;99.90;;;;;;5023665;28;20050;-89
2022/12/30 11:16:33;;;;;;;5.70;2.22;;;6.10;99.90;;;;;;4965311;28;20053;-87
2022/12/30 11:19:02;;;;;;;6.07;1.67;;;6.20;99.90;;;;;;4997621;28;20054;-83
2022/12/30 11:21:32;;;;;;;9.13;2.33;;;6.10;99.90;;;;;;4996673;28;20054;-82
2022/12/30 11:24:00;;;;;;;9.63;2.30;;;6.10;99.90;;;;;;5013669;28;20153;-83
2022/12/30 11:27:03;;;;;;;;;;;;;;;;;;;;;
2022/12/30 11:29:39;;;;;;;10.73;2.53;;;6.20;99.90;;;;;;5012700;28;20046;-86
2022/12/30 11:32:17;;;;;;;8.20;2.25;;;5.10;99.90;;;;;;5008720;28;20084;-85
2022/12/30 11:34:51;;;;;;;4.25;1.90;;;6.20;99.90;;;;;;4995921;28;20116;-84
2022/12/30 11:38:09;;;;;;;8.35;2.20;;;6.30;99.90;;;;;;4992145;28;20172;-90
2022/12/30 11:40:39;;;;;;;5.68;2.20;;;4.90;99.90;;;;;;4995134;28;20136;-84
2022/12/30 11:43:27;;;;;;;5.63;1.95;;;6.50;99.90;;;;;;4984294;28;20060;-84
2022/12/30 11:46:37;;;;;;;5.10;1.90;;;6.50;99.90;;;;;;4995074;28;20105;-85
2022/12/30 11:50:13;;;;;;;5.78;2.20;;;6.60;99.90;;;;;;4928803;29;20464;-89
2022/12/30 11:52:22;;;;;;;6.90;2.33;;;5.20;99.90;;;;;;4900849;29;20052;-87
2022/12/30 11:55:02;;;;;;;5.88;2.00;;;6.40;99.90;;;;;;4914672;29;20584;-84
2022/12/30 11:57:37;;;;;;;6.55;2.20;;;6.50;99.90;;;;;;4975787;28;20058;-81
2022/12/30 12:00:27;;;;;;;5.30;1.83;;;6.50;99.90;;;;;;4991338;28;20406;-83
2022/12/30 12:03:19;;;;;;;6.50;1.73;;;6.60;99.90;;;;;;4992567;28;20049;-87
2022/12/30 12:05:45;;;;;;;5.53;2.35;;;7.50;99.90;;;;;;4981625;28;20058;-85
2022/12/30 12:08:23;;;;;;;7.22;2.00;;;6.70;99.90;;;;;;4981446;28;20045;-83
2022/12/30 12:11:20;;;;;;;5.50;1.90;;;6.60;99.90;;;;;;4992180;28;20430;-84
2022/12/30 12:14:28;;;;;;;6.05;2.03;;;6.80;99.90;;;;;;4992676;28;20061;-85
2022/12/30 12:17:15;;;;;;;7.78;2.13;;;5.80;99.90;;;;;;4998184;28;20053;-83
2022/12/30 12:19:55;;;;;;;4.45;1.73;;;6.80;99.90;;;;;;4996350;28;20053;-83
2022/12/30 12:22:59;;;;;;;5.88;1.80;;;6.80;99.90;;;;;;5013408;28;20048;-86
2022/12/30 12:25:38;;;;;;;6.22;1.92;;;6.70;99.90;;;;;;4949915;28;20140;-86
2022/12/30 12:28:08;;;;;;;7.53;1.90;;;6.80;99.90;;;;;;4994590;28;20061;-83
2022/12/30 12:31:04;;;;;;;5.00;1.95;;;6.10;99.90;;;;;;4992224;28;20522;-84
2022/12/30 12:33:43;;;;;;;6.60;2.00;;;6.90;99.90;;;;;;5011976;28;20057;-84
2022/12/30 12:36:16;;;;;;;8.27;1.75;;;6.80;99.90;;;;;;4990996;28;20073;-86
2022/12/30 12:39:01;;;;;;;7.53;1.67;;;6.90;99.90;;;;;;4992471;28;20057;-87
2022/12/30 12:41:42;;;;;;;11.02;2.60;;;7.00;99.90;;;;;;5005590;28;20049;-88
2022/12/30 12:44:31;;;;;;;8.02;3.28;;;6.90;99.90;;;;;;5007767;28;20041;-84
2022/12/30 12:47:11;;;;;;;6.63;1.90;;;7.00;99.90;;;;;;5006295;28;20038;-83
2022/12/30 12:50:04;;;;;;;6.38;1.85;;;7.00;99.90;;;;;;5018776;28;20138;-88
2022/12/30 12:52:51;;;;;;;8.75;1.88;;;7.00;99.90;;;;;;4952801;28;20086;-83
2022/12/30 12:55:48;;;;;;;5.05;1.75;;;7.00;99.90;;;;;;4993805;28;20049;-84
2022/12/30 12:58:28;;;;;;;7.55;1.90;;;7.10;99.90;;;;;;4993467;28;20054;-83
2022/12/30 13:01:09;;;;;;;7.50;2.13;;;7.00;99.90;;;;;;5006658;28;20064;-83
2022/12/30 13:03:57;;;;;;;4.00;1.85;;;7.00;99.90;;;;;;4992562;28;20058;-83
2022/12/30 13:06:52;;;;;;;6.82;2.03;;;7.10;99.90;;;;;;4992697;28;20041;-83
2022/12/30 13:10:04;;;;;;;6.97;1.67;;;7.10;99.90;;;;;;4958033;28;20123;-82
2022/12/30 13:13:07;;;;;;;6.13;1.65;;;7.10;99.90;;;;;;5006874;28;20061;-84
2022/12/30 13:15:39;;;;;;;7.32;2.05;;;7.10;99.90;;;;;;4987020;28;20049;-84
2022/12/30 13:18:11;;;;;;;5.05;1.77;;;7.20;99.90;;;;;;4988053;28;20046;-83
2022/12/30 13:20:58;;;;;;;7.78;2.38;;;7.20;99.90;;;;;;4988332;28;20098;-83
2022/12/30 13:23:35;;;;;;;10.23;2.50;;;7.50;99.90;;;;;;4976436;28;20526;-82
2022/12/30 13:26:03;;;;;;;5.40;2.00;;;7.20;99.90;;;;;;4993378;28;20044;-82
2022/12/30 13:28:34;;;;;;;4.50;1.63;;;7.30;99.90;;;;;;5010042;28;20573;-83
2022/12/30 13:31:31;;;;;;;7.22;1.70;;;7.30;99.90;;;;;;4991294;28;20526;-83
2022/12/30 13:34:14;;;;;;;6.18;1.75;;;7.20;99.90;;;;;;5011272;28;20064;-84
2022/12/30 13:37:09;;;;;;;4.07;1.85;;;7.40;99.90;;;;;;5009600;28;20042;-82
2022/12/30 13:40:10;;;;;;;6.57;1.80;;;7.40;99.90;;;;;;4998000;28;20042;-86
2022/12/30 13:43:04;;;;;;;4.15;1.80;;;7.40;99.90;;;;;;4982614;28;20069;-87
2022/12/30 13:45:38;;;;;;;8.07;1.85;;;7.50;99.90;;;;;;4994636;28;20551;-86
2022/12/30 13:48:24;;;;;;;5.45;1.83;;;7.40;99.90;;;;;;5010217;28;20077;-86
2022/12/30 13:51:23;;;;;;;5.72;2.10;;;7.70;99.90;;;;;;5000820;28;20175;-88
2022/12/30 13:53:53;;;;;;;8.38;1.90;;;7.40;99.90;;;;;;5011683;28;20049;-84
2022/12/30 13:56:34;;;;;;;6.57;1.92;;;7.50;99.90;;;;;;5002945;28;20190;-84
2022/12/30 13:59:01;;;;;;;6.30;1.92;;;7.50;99.90;;;;;;4999742;28;20054;-83
2022/12/30 14:01:39;;;;;;;7.75;1.80;;;6.40;99.90;;;;;;4997238;28;20056;-82
2022/12/30 14:04:13;;;;;;;8.32;1.90;;;7.70;99.90;;;;;;5009128;28;20076;-87
2022/12/30 14:06:49;;;;;;;7.60;2.22;;;7.60;99.90;;;;;;4992791;28;20063;-88
2022/12/30 14:09:23;;;;;;;10.15;1.85;;;7.60;99.90;;;;;;4998405;28;20408;-85
2022/12/30 14:12:04;;;;;;;4.15;1.67;;;7.60;99.90;;;;;;5007544;28;20568;-82
2022/12/30 14:14:40;;;;;;;7.50;2.20;;;7.60;99.90;;;;;;5013494;28;20045;-83
2022/12/30 14:17:15;;;;;;;5.70;1.42;;;7.60;99.90;;;;;;5010072;28;20050;-86
2022/12/30 14:19:56;;;;;;;6.78;1.80;;;7.60;99.90;;;;;;4990916;28;20052;-83
2022/12/30 14:22:40;;;;;;;6.47;1.80;;;6.90;99.90;;;;;;4991157;28;20097;-83
2022/12/30 14:25:33;;;;;;;4.97;1.42;;;7.60;99.90;;;;;;4991376;28;20444;-82
2022/12/30 14:28:25;;;;;;;7.53;1.77;;;7.60;99.90;;;;;;4987870;28;20462;-82